sensor_id;sensor_type;location;lat;lon;timestamp;pressure;altitude;pressure_sealevel;temperature;humidity
19553;BME280;9420;50.876;7.012;2022-08-25T00:01:59;101188.47;;;37.17;31.39
19553;BME280;9420;50.876;7.012;2022-08-25T00:04:28;101180.84;;;37.19;31.61
19553;BME280;9420;50.876;7.012;2022-08-25T00:06:55;101187.59;;;37.10;31.83
19553;BME280;9420;50.876;7.012;2022-08-25T00:09:25;101178.50;;;37.16;31.90
19553;BME280;9420;50.876;7.012;2022-08-25T00:11:54;101178.22;;;37.59;31.36
19553;BME280;9420;50.876;7.012;2022-08-25T00:14:24;101184.94;;;37.36;31.92
19553;BME280;9420;50.876;7.012;2022-08-25T00:16:52;101187.81;;;37.15;31.95
19553;BME280;9420;50.876;7.012;2022-08-25T00:19:25;101192.44;;;37.08;32.46
19553;BME280;9420;50.876;7.012;2022-08-25T00:21:55;101189.03;;;37.00;32.39
19553;BME280;9420;50.876;7.012;2022-08-25T00:24:23;101187.41;;;36.71;33.70
19553;BME280;9420;50.876;7.012;2022-08-25T00:26:55;101191.31;;;36.55;31.66
19553;BME280;9420;50.876;7.012;2022-08-25T00:29:24;101178.91;;;36.66;31.50
19553;BME280;9420;50.876;7.012;2022-08-25T00:31:52;101188.31;;;36.44;32.53
19553;BME280;9420;50.876;7.012;2022-08-25T00:34:25;101187.47;;;36.43;33.05
19553;BME280;9420;50.876;7.012;2022-08-25T00:36:55;101194.56;;;36.38;33.20
19553;BME280;9420;50.876;7.012;2022-08-25T00:39:23;101189.22;;;36.51;33.29
19553;BME280;9420;50.876;7.012;2022-08-25T00:41:53;101189.25;;;36.30;33.60
19553;BME280;9420;50.876;7.012;2022-08-25T00:44:22;101190.97;;;36.37;33.41
19553;BME280;9420;50.876;7.012;2022-08-25T00:46:54;101188.19;;;36.31;33.27
19553;BME280;9420;50.876;7.012;2022-08-25T00:49:26;101185.22;;;36.60;33.01
19553;BME280;9420;50.876;7.012;2022-08-25T00:52:00;101186.78;;;36.76;32.69
19553;BME280;9420;50.876;7.012;2022-08-25T00:54:33;101185.22;;;36.94;32.39
19553;BME280;9420;50.876;7.012;2022-08-25T00:57:06;101191.19;;;36.36;33.11
19553;BME280;9420;50.876;7.012;2022-08-25T00:59:34;101189.38;;;36.15;33.31
19553;BME280;9420;50.876;7.012;2022-08-25T01:02:05;101185.59;;;36.23;33.53
19553;BME280;9420;50.876;7.012;2022-08-25T01:04:32;101186.94;;;36.33;33.52
19553;BME280;9420;50.876;7.012;2022-08-25T01:07:02;101189.09;;;36.38;33.18
19553;BME280;9420;50.876;7.012;2022-08-25T01:09:31;101185.94;;;36.41;33.54
19553;BME280;9420;50.876;7.012;2022-08-25T01:11:59;101187.00;;;36.40;33.24
19553;BME280;9420;50.876;7.012;2022-08-25T01:14:30;101182.91;;;36.29;33.43
19553;BME280;9420;50.876;7.012;2022-08-25T01:16:58;101180.44;;;36.07;33.68
19553;BME280;9420;50.876;7.012;2022-08-25T01:19:27;101180.03;;;36.10;34.14
19553;BME280;9420;50.876;7.012;2022-08-25T01:21:55;101176.00;;;36.06;33.67
19553;BME280;9420;50.876;7.012;2022-08-25T01:24:31;101186.09;;;35.77;34.57
19553;BME280;9420;50.876;7.012;2022-08-25T01:27:01;101182.22;;;36.21;34.20
19553;BME280;9420;50.876;7.012;2022-08-25T01:29:29;101178.88;;;35.98;34.63
19553;BME280;9420;50.876;7.012;2022-08-25T01:32:02;101185.56;;;36.16;34.43
19553;BME280;9420;50.876;7.012;2022-08-25T01:34:34;101186.09;;;35.77;34.82
19553;BME280;9420;50.876;7.012;2022-08-25T01:37:03;101190.50;;;35.78;34.77
19553;BME280;9420;50.876;7.012;2022-08-25T01:39:32;101192.59;;;35.98;34.54
19553;BME280;9420;50.876;7.012;2022-08-25T01:42:28;101188.28;;;35.46;35.42
19553;BME280;9420;50.876;7.012;2022-08-25T01:44:58;101192.22;;;35.58;35.11
19553;BME280;9420;50.876;7.012;2022-08-25T01:47:26;101181.09;;;35.45;35.25
19553;BME280;9420;50.876;7.012;2022-08-25T01:49:53;101192.00;;;35.03;35.79
19553;BME280;9420;50.876;7.012;2022-08-25T01:52:27;101192.41;;;35.00;36.13
19553;BME280;9420;50.876;7.012;2022-08-25T01:54:55;101182.94;;;34.88;35.65
19553;BME280;9420;50.876;7.012;2022-08-25T01:57:22;101192.00;;;34.45;36.14
19553;BME280;9420;50.876;7.012;2022-08-25T01:59:49;101187.38;;;34.45;35.74
19553;BME280;9420;50.876;7.012;2022-08-25T02:02:16;101187.06;;;35.13;35.33
19553;BME280;9420;50.876;7.012;2022-08-25T02:04:44;101186.63;;;34.80;35.60
19553;BME280;9420;50.876;7.012;2022-08-25T02:07:11;101190.16;;;34.60;36.33
19553;BME280;9420;50.876;7.012;2022-08-25T02:09:39;101194.44;;;34.39;36.53
19553;BME280;9420;50.876;7.012;2022-08-25T02:12:07;101194.53;;;34.46;36.15
19553;BME280;9420;50.876;7.012;2022-08-25T02:14:35;101190.34;;;34.73;35.80
19553;BME280;9420;50.876;7.012;2022-08-25T02:17:04;101203.59;;;34.47;36.61
19553;BME280;9420;50.876;7.012;2022-08-25T02:19:32;101198.16;;;34.76;35.95
19553;BME280;9420;50.876;7.012;2022-08-25T02:21:59;101200.88;;;35.05;35.28
19553;BME280;9420;50.876;7.012;2022-08-25T02:24:27;101206.00;;;35.29;34.71
19553;BME280;9420;50.876;7.012;2022-08-25T02:26:56;101207.09;;;34.99;35.50
19553;BME280;9420;50.876;7.012;2022-08-25T02:29:24;101204.03;;;35.23;35.51
19553;BME280;9420;50.876;7.012;2022-08-25T02:31:51;101208.22;;;34.90;35.86
19553;BME280;9420;50.876;7.012;2022-08-25T02:34:18;101205.47;;;34.90;35.92
19553;BME280;9420;50.876;7.012;2022-08-25T02:36:45;101208.81;;;35.00;35.82
19553;BME280;9420;50.876;7.012;2022-08-25T02:39:12;101205.56;;;35.47;34.76
19553;BME280;9420;50.876;7.012;2022-08-25T02:41:39;101199.53;;;35.37;34.41
19553;BME280;9420;50.876;7.012;2022-08-25T02:44:08;101203.38;;;35.21;34.78
19553;BME280;9420;50.876;7.012;2022-08-25T02:46:38;101191.00;;;35.25;34.53
19553;BME280;9420;50.876;7.012;2022-08-25T02:49:06;101198.69;;;35.36;34.48
19553;BME280;9420;50.876;7.012;2022-08-25T02:51:35;101197.13;;;35.27;34.38
19553;BME280;9420;50.876;7.012;2022-08-25T02:54:04;101182.97;;;35.24;33.98
19553;BME280;9420;50.876;7.012;2022-08-25T02:56:32;101184.84;;;35.02;34.84
19553;BME280;9420;50.876;7.012;2022-08-25T02:59:00;101173.31;;;35.28;34.54
19553;BME280;9420;50.876;7.012;2022-08-25T03:01:29;101180.34;;;35.15;34.22
19553;BME280;9420;50.876;7.012;2022-08-25T03:03:59;101174.69;;;35.38;33.78
19553;BME280;9420;50.876;7.012;2022-08-25T03:06:27;101177.72;;;35.64;33.60
19553;BME280;9420;50.876;7.012;2022-08-25T03:08:55;101168.94;;;35.48;33.72
19553;BME280;9420;50.876;7.012;2022-08-25T03:11:22;101171.44;;;35.28;34.03
19553;BME280;9420;50.876;7.012;2022-08-25T03:13:51;101168.94;;;35.12;34.32
19553;BME280;9420;50.876;7.012;2022-08-25T03:16:19;101163.25;;;35.49;33.75
19553;BME280;9420;50.876;7.012;2022-08-25T03:18:48;101163.53;;;35.54;33.90
19553;BME280;9420;50.876;7.012;2022-08-25T03:21:16;101148.91;;;35.68;33.05
19553;BME280;9420;50.876;7.012;2022-08-25T03:23:44;101155.72;;;36.00;33.49
19553;BME280;9420;50.876;7.012;2022-08-25T03:26:11;101151.50;;;35.76;33.56
19553;BME280;9420;50.876;7.012;2022-08-25T03:28:56;101157.63;;;35.57;34.41
19553;BME280;9420;50.876;7.012;2022-08-25T03:31:24;101155.78;;;35.43;34.28
19553;BME280;9420;50.876;7.012;2022-08-25T03:33:54;101157.66;;;36.75;32.74
19553;BME280;9420;50.876;7.012;2022-08-25T03:36:22;101153.00;;;36.75;32.68
19553;BME280;9420;50.876;7.012;2022-08-25T03:38:49;101151.25;;;35.71;34.38
19553;BME280;9420;50.876;7.012;2022-08-25T03:41:21;101158.69;;;34.99;34.99
19553;BME280;9420;50.876;7.012;2022-08-25T03:43:49;101163.53;;;34.83;36.06
19553;BME280;9420;50.876;7.012;2022-08-25T03:46:20;101164.41;;;34.54;36.34
19553;BME280;9420;50.876;7.012;2022-08-25T03:48:48;101162.22;;;34.79;36.06
19553;BME280;9420;50.876;7.012;2022-08-25T03:51:23;101153.94;;;34.58;36.39
19553;BME280;9420;50.876;7.012;2022-08-25T03:53:52;101149.56;;;34.49;36.17
19553;BME280;9420;50.876;7.012;2022-08-25T03:56:19;101144.03;;;34.57;36.36
19553;BME280;9420;50.876;7.012;2022-08-25T03:58:46;101145.06;;;34.56;36.03
19553;BME280;9420;50.876;7.012;2022-08-25T04:01:16;101135.44;;;34.60;36.09
19553;BME280;9420;50.876;7.012;2022-08-25T04:03:43;101127.44;;;34.58;35.94
19553;BME280;9420;50.876;7.012;2022-08-25T04:06:11;101121.47;;;34.69;36.62
19553;BME280;9420;50.876;7.012;2022-08-25T04:08:39;101125.38;;;34.16;37.14
19553;BME280;9420;50.876;7.012;2022-08-25T04:11:10;101122.53;;;34.24;36.81
19553;BME280;9420;50.876;7.012;2022-08-25T04:13:38;101126.28;;;34.23;36.76
19553;BME280;9420;50.876;7.012;2022-08-25T04:16:10;101132.97;;;34.35;36.86
19553;BME280;9420;50.876;7.012;2022-08-25T04:18:39;101127.44;;;34.58;36.36
19553;BME280;9420;50.876;7.012;2022-08-25T04:21:08;101129.13;;;34.30;36.91
19553;BME280;9420;50.876;7.012;2022-08-25T04:23:36;101138.44;;;34.35;36.38
19553;BME280;9420;50.876;7.012;2022-08-25T04:26:10;101134.13;;;34.26;37.27
19553;BME280;9420;50.876;7.012;2022-08-25T04:28:37;101122.53;;;34.24;37.04
19553;BME280;9420;50.876;7.012;2022-08-25T04:31:06;101133.94;;;34.13;37.69
19553;BME280;9420;50.876;7.012;2022-08-25T04:33:34;101133.56;;;34.16;37.27
19553;BME280;9420;50.876;7.012;2022-08-25T04:36:01;101131.38;;;34.26;37.51
19553;BME280;9420;50.876;7.012;2022-08-25T04:38:28;101125.63;;;34.51;37.44
19553;BME280;9420;50.876;7.012;2022-08-25T04:40:56;101130.19;;;34.94;36.82
19553;BME280;9420;50.876;7.012;2022-08-25T04:43:25;101130.09;;;35.02;36.15
19553;BME280;9420;50.876;7.012;2022-08-25T04:45:52;101132.06;;;34.58;36.87
19553;BME280;9420;50.876;7.012;2022-08-25T04:48:21;101133.94;;;34.93;36.15
19553;BME280;9420;50.876;7.012;2022-08-25T04:50:48;101142.00;;;34.80;36.88
19553;BME280;9420;50.876;7.012;2022-08-25T04:53:17;101134.47;;;34.67;37.15
19553;BME280;9420;50.876;7.012;2022-08-25T04:55:47;101139.50;;;34.49;37.39
19553;BME280;9420;50.876;7.012;2022-08-25T04:58:15;101136.66;;;34.42;37.24
19553;BME280;9420;50.876;7.012;2022-08-25T05:00:44;101128.66;;;34.56;37.12
19553;BME280;9420;50.876;7.012;2022-08-25T05:03:12;101132.81;;;34.52;37.16
19553;BME280;9420;50.876;7.012;2022-08-25T05:05:40;101126.28;;;34.38;37.71
19553;BME280;9420;50.876;7.012;2022-08-25T05:08:07;101129.13;;;34.59;37.17
19553;BME280;9420;50.876;7.012;2022-08-25T05:10:39;101129.22;;;34.66;37.39
19553;BME280;9420;50.876;7.012;2022-08-25T05:13:06;101132.31;;;34.63;37.79
19553;BME280;9420;50.876;7.012;2022-08-25T05:15:33;101129.56;;;34.63;37.59
19553;BME280;9420;50.876;7.012;2022-08-25T05:18:22;101130.44;;;34.63;37.89
19553;BME280;9420;50.876;7.012;2022-08-25T05:20:50;101129.22;;;34.66;38.21
19553;BME280;9420;50.876;7.012;2022-08-25T05:23:19;101121.78;;;34.60;38.41
19553;BME280;9420;50.876;7.012;2022-08-25T05:25:50;101127.59;;;34.71;38.41
19553;BME280;9420;50.876;7.012;2022-08-25T05:28:19;101128.19;;;34.88;37.72
19553;BME280;9420;50.876;7.012;2022-08-25T05:30:47;101125.94;;;34.91;38.12
19553;BME280;9420;50.876;7.012;2022-08-25T05:33:16;101119.72;;;36.10;37.05
19553;BME280;9420;50.876;7.012;2022-08-25T05:35:44;101117.91;;;35.26;37.55
19553;BME280;9420;50.876;7.012;2022-08-25T05:38:11;101119.03;;;35.31;38.40
19553;BME280;9420;50.876;7.012;2022-08-25T05:40:38;101122.41;;;35.33;39.75
19553;BME280;9420;50.876;7.012;2022-08-25T05:43:06;101114.84;;;35.14;40.44
19553;BME280;9420;50.876;7.012;2022-08-25T05:45:34;101117.44;;;35.43;39.43
19553;BME280;9420;50.876;7.012;2022-08-25T05:48:02;101114.72;;;35.64;39.77
19553;BME280;9420;50.876;7.012;2022-08-25T05:50:29;101113.63;;;35.86;39.80
19553;BME280;9420;50.876;7.012;2022-08-25T05:52:58;101106.84;;;35.82;38.80
19553;BME280;9420;50.876;7.012;2022-08-25T05:55:25;101108.25;;;36.00;38.55
19553;BME280;9420;50.876;7.012;2022-08-25T05:57:52;101112.09;;;36.05;38.73
19553;BME280;9420;50.876;7.012;2022-08-25T06:00:19;101109.59;;;36.10;40.00
19553;BME280;9420;50.876;7.012;2022-08-25T06:02:46;101104.72;;;36.40;38.41
19553;BME280;9420;50.876;7.012;2022-08-25T06:05:18;101104.63;;;36.27;38.62
19553;BME280;9420;50.876;7.012;2022-08-25T06:07:48;101105.88;;;36.58;36.17
19553;BME280;9420;50.876;7.012;2022-08-25T06:10:19;101110.63;;;36.84;37.70
19553;BME280;9420;50.876;7.012;2022-08-25T06:12:47;101102.44;;;37.04;36.84
19553;BME280;9420;50.876;7.012;2022-08-25T06:15:19;101111.22;;;36.80;37.86
19553;BME280;9420;50.876;7.012;2022-08-25T06:17:47;101106.69;;;37.13;36.68
19553;BME280;9420;50.876;7.012;2022-08-25T06:20:18;101103.72;;;38.39;35.68
19553;BME280;9420;50.876;7.012;2022-08-25T06:22:46;101099.09;;;37.21;36.21
19553;BME280;9420;50.876;7.012;2022-08-25T06:25:19;101104.38;;;37.29;35.41
19553;BME280;9420;50.876;7.012;2022-08-25T06:27:46;101108.00;;;37.30;36.94
19553;BME280;9420;50.876;7.012;2022-08-25T06:30:17;101111.38;;;37.25;36.02
19553;BME280;9420;50.876;7.012;2022-08-25T06:32:45;101111.66;;;36.83;36.55
19553;BME280;9420;50.876;7.012;2022-08-25T06:35:18;101111.81;;;37.35;35.57
19553;BME280;9420;50.876;7.012;2022-08-25T06:37:46;101110.59;;;37.84;34.45
19553;BME280;9420;50.876;7.012;2022-08-25T06:40:14;101119.69;;;37.84;35.67
19553;BME280;9420;50.876;7.012;2022-08-25T06:42:47;101116.91;;;37.65;35.33
19553;BME280;9420;50.876;7.012;2022-08-25T06:45:15;101117.34;;;37.75;35.24
19553;BME280;9420;50.876;7.012;2022-08-25T06:47:42;101118.50;;;38.44;35.17
19553;BME280;9420;50.876;7.012;2022-08-25T06:50:09;101117.31;;;38.07;34.25
19553;BME280;9420;50.876;7.012;2022-08-25T06:52:36;101129.16;;;38.08;34.23
19553;BME280;9420;50.876;7.012;2022-08-25T06:55:04;101126.13;;;38.42;34.31
19553;BME280;9420;50.876;7.012;2022-08-25T06:57:32;101130.00;;;38.28;34.16
19553;BME280;9420;50.876;7.012;2022-08-25T07:00:03;101132.81;;;38.72;33.79
19553;BME280;9420;50.876;7.012;2022-08-25T07:02:31;101131.88;;;38.21;34.04
19553;BME280;9420;50.876;7.012;2022-08-25T07:04:58;101123.63;;;38.28;33.79
19553;BME280;9420;50.876;7.012;2022-08-25T07:07:26;101117.44;;;38.52;34.07
19553;BME280;9420;50.876;7.012;2022-08-25T07:09:53;101111.16;;;38.82;33.22
19553;BME280;9420;50.876;7.012;2022-08-25T07:12:21;101115.19;;;38.29;34.14
19553;BME280;9420;50.876;7.012;2022-08-25T07:14:49;101109.00;;;39.60;32.92
19553;BME280;9420;50.876;7.012;2022-08-25T07:17:17;101117.03;;;39.30;32.97
19553;BME280;9420;50.876;7.012;2022-08-25T07:19:45;101110.84;;;39.35;32.40
19553;BME280;9420;50.876;7.012;2022-08-25T07:22:12;101109.97;;;39.41;32.36
19553;BME280;9420;50.876;7.012;2022-08-25T07:24:40;101107.09;;;39.54;32.51
19553;BME280;9420;50.876;7.012;2022-08-25T07:27:07;101105.53;;;39.89;31.71
19553;BME280;9420;50.876;7.012;2022-08-25T07:29:34;101112.66;;;40.21;31.39
19553;BME280;9420;50.876;7.012;2022-08-25T07:32:04;101118.34;;;39.59;31.92
19553;BME280;9420;50.876;7.012;2022-08-25T07:34:33;101118.16;;;40.21;31.70
19553;BME280;9420;50.876;7.012;2022-08-25T07:37:20;101106.41;;;42.67;28.94
19553;BME280;9420;50.876;7.012;2022-08-25T07:39:48;101096.44;;;42.43;29.30
19553;BME280;9420;50.876;7.012;2022-08-25T07:42:15;101113.22;;;42.76;28.78
19553;BME280;9420;50.876;7.012;2022-08-25T07:44:42;101109.72;;;42.18;29.04
19553;BME280;9420;50.876;7.012;2022-08-25T07:47:09;101107.78;;;42.30;29.27
19553;BME280;9420;50.876;7.012;2022-08-25T07:49:38;101100.25;;;43.21;28.10
19553;BME280;9420;50.876;7.012;2022-08-25T07:52:05;101100.69;;;42.85;28.15
19553;BME280;9420;50.876;7.012;2022-08-25T07:54:33;101100.31;;;43.55;27.93
19553;BME280;9420;50.876;7.012;2022-08-25T07:57:00;101099.75;;;44.24;27.15
19553;BME280;9420;50.876;7.012;2022-08-25T07:59:27;101102.31;;;43.92;27.29
19553;BME280;9420;50.876;7.012;2022-08-25T08:01:55;101102.09;;;43.16;27.90
19553;BME280;9420;50.876;7.012;2022-08-25T08:04:22;101094.53;;;42.32;28.91
19553;BME280;9420;50.876;7.012;2022-08-25T08:06:51;101091.69;;;42.04;29.34
19553;BME280;9420;50.876;7.012;2022-08-25T08:09:18;101093.94;;;41.37;29.92
19553;BME280;9420;50.876;7.012;2022-08-25T08:11:45;101097.19;;;41.57;29.51
19553;BME280;9420;50.876;7.012;2022-08-25T08:14:13;101094.94;;;41.89;29.41
19553;BME280;9420;50.876;7.012;2022-08-25T08:16:41;101099.25;;;44.10;27.13
19553;BME280;9420;50.876;7.012;2022-08-25T08:19:08;101095.50;;;44.81;26.34
19553;BME280;9420;50.876;7.012;2022-08-25T08:21:35;101087.09;;;44.55;26.91
19553;BME280;9420;50.876;7.012;2022-08-25T08:24:05;101080.06;;;44.96;26.48
19553;BME280;9420;50.876;7.012;2022-08-25T08:26:32;101074.22;;;43.56;27.64
19553;BME280;9420;50.876;7.012;2022-08-25T08:28:59;101078.03;;;42.48;29.06
19553;BME280;9420;50.876;7.012;2022-08-25T08:31:27;101071.25;;;42.84;28.45
19553;BME280;9420;50.876;7.012;2022-08-25T08:33:56;101064.00;;;42.66;28.49
19553;BME280;9420;50.876;7.012;2022-08-25T08:36:24;101067.03;;;43.55;27.92
19553;BME280;9420;50.876;7.012;2022-08-25T08:38:53;101060.56;;;42.88;28.00
19553;BME280;9420;50.876;7.012;2022-08-25T08:41:58;101053.59;;;43.63;27.73
19553;BME280;9420;50.876;7.012;2022-08-25T08:45:13;101060.81;;;43.03;28.36
19553;BME280;9420;50.876;7.012;2022-08-25T08:47:56;101052.34;;;44.09;27.25
19553;BME280;9420;50.876;7.012;2022-08-25T08:50:36;101049.94;;;42.96;27.88
19553;BME280;9420;50.876;7.012;2022-08-25T08:53:10;101048.53;;;43.43;27.85
19553;BME280;9420;50.876;7.012;2022-08-25T08:55:44;101049.97;;;43.29;27.72
19553;BME280;9420;50.876;7.012;2022-08-25T08:58:19;101044.00;;;43.71;27.84
19553;BME280;9420;50.876;7.012;2022-08-25T09:00:52;101045.03;;;43.31;27.48
19553;BME280;9420;50.876;7.012;2022-08-25T09:03:32;101037.69;;;43.59;27.51
19553;BME280;9420;50.876;7.012;2022-08-25T09:06:07;101040.78;;;43.79;27.08
19553;BME280;9420;50.876;7.012;2022-08-25T09:08:37;101037.69;;;44.57;26.71
19553;BME280;9420;50.876;7.012;2022-08-25T09:11:20;101035.50;;;44.15;27.03
19553;BME280;9420;50.876;7.012;2022-08-25T09:14:19;101027.88;;;44.06;27.16
19553;BME280;9420;50.876;7.012;2022-08-25T09:16:59;101028.31;;;44.41;26.89
19553;BME280;9420;50.876;7.012;2022-08-25T09:19:44;101023.72;;;44.52;27.34
19553;BME280;9420;50.876;7.012;2022-08-25T09:22:27;101033.69;;;44.48;26.89
19553;BME280;9420;50.876;7.012;2022-08-25T09:25:04;101028.56;;;44.18;27.05
19553;BME280;9420;50.876;7.012;2022-08-25T09:27:42;101024.38;;;44.85;26.42
19553;BME280;9420;50.876;7.012;2022-08-25T09:30:15;101017.22;;;44.41;27.11
19553;BME280;9420;50.876;7.012;2022-08-25T09:32:46;101020.72;;;44.80;26.55
19553;BME280;9420;50.876;7.012;2022-08-25T09:35:20;101017.94;;;44.53;26.73
19553;BME280;9420;50.876;7.012;2022-08-25T09:37:59;101011.47;;;45.01;26.49
19553;BME280;9420;50.876;7.012;2022-08-25T09:40:29;101012.13;;;44.81;26.55
19553;BME280;9420;50.876;7.012;2022-08-25T09:43:02;101012.66;;;44.78;26.38
19553;BME280;9420;50.876;7.012;2022-08-25T09:45:39;100990.03;;;45.28;25.14
19553;BME280;9420;50.876;7.012;2022-08-25T09:48:22;100994.34;;;44.82;26.19
19553;BME280;9420;50.876;7.012;2022-08-25T09:50:56;100999.88;;;45.41;25.03
19553;BME280;9420;50.876;7.012;2022-08-25T09:53:25;100992.94;;;45.90;25.00
19553;BME280;9420;50.876;7.012;2022-08-25T09:56:00;100987.06;;;46.54;24.81
19553;BME280;9420;50.876;7.012;2022-08-25T09:58:30;100994.00;;;45.84;24.86
19553;BME280;9420;50.876;7.012;2022-08-25T10:01:13;100986.31;;;45.96;25.17
19553;BME280;9420;50.876;7.012;2022-08-25T10:03:59;100984.31;;;45.45;24.79
19553;BME280;9420;50.876;7.012;2022-08-25T10:06:33;100984.69;;;44.90;25.94
19553;BME280;9420;50.876;7.012;2022-08-25T10:09:04;100981.78;;;45.85;24.70
19553;BME280;9420;50.876;7.012;2022-08-25T10:11:39;100973.75;;;46.81;24.52
19553;BME280;9420;50.876;7.012;2022-08-25T10:14:19;100982.09;;;46.66;24.33
19553;BME280;9420;50.876;7.012;2022-08-25T10:16:49;100975.84;;;45.67;24.55
19553;BME280;9420;50.876;7.012;2022-08-25T10:19:29;100973.78;;;47.06;23.66
19553;BME280;9420;50.876;7.012;2022-08-25T10:22:08;100969.31;;;47.40;23.22
19553;BME280;9420;50.876;7.012;2022-08-25T10:24:37;100965.94;;;47.48;23.61
19553;BME280;9420;50.876;7.012;2022-08-25T10:27:17;100961.97;;;46.49;24.11
19553;BME280;9420;50.876;7.012;2022-08-25T10:30:05;100961.44;;;47.62;23.58
19553;BME280;9420;50.876;7.012;2022-08-25T10:33:01;100949.47;;;47.52;22.72
19553;BME280;9420;50.876;7.012;2022-08-25T10:35:44;100948.81;;;48.44;22.46
19553;BME280;9420;50.876;7.012;2022-08-25T10:38:31;100937.09;;;48.76;21.62
19553;BME280;9420;50.876;7.012;2022-08-25T10:41:19;100943.88;;;48.26;22.18
19553;BME280;9420;50.876;7.012;2022-08-25T10:43:59;100938.41;;;48.88;22.30
19553;BME280;9420;50.876;7.012;2022-08-25T10:46:37;100926.56;;;49.30;21.24
19553;BME280;9420;50.876;7.012;2022-08-25T10:49:12;100927.19;;;49.98;20.96
19553;BME280;9420;50.876;7.012;2022-08-25T10:51:54;100924.91;;;50.00;20.96
19553;BME280;9420;50.876;7.012;2022-08-25T10:54:57;100915.34;;;48.73;22.32
19553;BME280;9420;50.876;7.012;2022-08-25T10:57:34;100914.91;;;49.70;20.98
19553;BME280;9420;50.876;7.012;2022-08-25T11:00:07;100909.41;;;50.96;20.70
19553;BME280;9420;50.876;7.012;2022-08-25T11:03:12;100907.31;;;49.23;21.32
19553;BME280;9420;50.876;7.012;2022-08-25T11:05:50;100909.03;;;51.16;20.01
19553;BME280;9420;50.876;7.012;2022-08-25T11:08:31;100897.75;;;50.89;19.65
19553;BME280;9420;50.876;7.012;2022-08-25T11:11:06;100901.13;;;50.53;19.46
19553;BME280;9420;50.876;7.012;2022-08-25T11:13:43;100898.03;;;51.46;19.44
19553;BME280;9420;50.876;7.012;2022-08-25T11:16:19;100896.56;;;52.03;19.73
19553;BME280;9420;50.876;7.012;2022-08-25T11:18:55;100892.50;;;53.68;18.13
19553;BME280;9420;50.876;7.012;2022-08-25T11:21:34;100882.50;;;53.45;17.32
19553;BME280;9420;50.876;7.012;2022-08-25T11:24:28;100890.47;;;53.12;17.29
19553;BME280;9420;50.876;7.012;2022-08-25T11:26:59;100886.53;;;53.22;17.84
19553;BME280;9420;50.876;7.012;2022-08-25T11:29:34;100884.34;;;53.49;17.60
19553;BME280;9420;50.876;7.012;2022-08-25T11:32:04;100885.81;;;54.63;17.07
19553;BME280;9420;50.876;7.012;2022-08-25T11:34:35;100889.06;;;53.40;17.65
19553;BME280;9420;50.876;7.012;2022-08-25T11:37:13;100885.81;;;54.46;17.22
19553;BME280;9420;50.876;7.012;2022-08-25T11:40:16;100886.63;;;55.85;16.66
19553;BME280;9420;50.876;7.012;2022-08-25T11:43:00;100878.91;;;55.45;16.84
19553;BME280;9420;50.876;7.012;2022-08-25T11:45:52;100877.00;;;52.48;18.04
19553;BME280;9420;50.876;7.012;2022-08-25T11:48:36;100874.88;;;54.53;16.86
19553;BME280;9420;50.876;7.012;2022-08-25T11:51:08;100866.75;;;54.43;16.58
19553;BME280;9420;50.876;7.012;2022-08-25T11:53:39;100858.34;;;55.36;15.95
19553;BME280;9420;50.876;7.012;2022-08-25T11:56:12;100859.94;;;54.18;16.42
19553;BME280;9420;50.876;7.012;2022-08-25T11:58:57;100863.47;;;56.99;15.58
19553;BME280;9420;50.876;7.012;2022-08-25T12:02:02;100862.47;;;56.70;15.32
19553;BME280;9420;50.876;7.012;2022-08-25T12:04:35;100857.47;;;56.55;15.69
19553;BME280;9420;50.876;7.012;2022-08-25T12:07:27;100856.06;;;56.61;15.30
19553;BME280;9420;50.876;7.012;2022-08-25T12:10:19;100850.91;;;56.76;15.35
19553;BME280;9420;50.876;7.012;2022-08-25T12:13:23;100830.69;;;56.98;14.64
19553;BME280;9420;50.876;7.012;2022-08-25T12:15:58;100835.56;;;57.33;14.63
19553;BME280;9420;50.876;7.012;2022-08-25T12:18:44;100827.94;;;57.86;14.15
19553;BME280;9420;50.876;7.012;2022-08-25T12:21:32;100822.59;;;56.76;14.22
19553;BME280;9420;50.876;7.012;2022-08-25T12:24:12;100822.50;;;56.72;14.56
19553;BME280;9420;50.876;7.012;2022-08-25T12:26:54;100822.41;;;54.78;15.41
19553;BME280;9420;50.876;7.012;2022-08-25T12:29:33;100821.22;;;56.16;15.18
19553;BME280;9420;50.876;7.012;2022-08-25T12:32:22;100817.59;;;56.93;13.53
19553;BME280;9420;50.876;7.012;2022-08-25T12:35:15;100820.78;;;58.75;12.62
19553;BME280;9420;50.876;7.012;2022-08-25T12:38:03;100816.38;;;59.75;12.61
19553;BME280;9420;50.876;7.012;2022-08-25T12:40:38;100816.97;;;60.22;12.10
19553;BME280;9420;50.876;7.012;2022-08-25T12:43:27;100817.66;;;60.57;11.98
19553;BME280;9420;50.876;7.012;2022-08-25T12:46:35;100804.50;;;59.03;13.20
19553;BME280;9420;50.876;7.012;2022-08-25T12:49:11;100805.94;;;59.28;12.61
19553;BME280;9420;50.876;7.012;2022-08-25T12:51:59;100805.88;;;59.59;12.37
19553;BME280;9420;50.876;7.012;2022-08-25T12:54:44;100798.81;;;59.19;12.42
19553;BME280;9420;50.876;7.012;2022-08-25T12:57:37;100800.09;;;56.34;13.13
19553;BME280;9420;50.876;7.012;2022-08-25T13:00:15;100795.72;;;57.66;12.95
19553;BME280;9420;50.876;7.012;2022-08-25T13:06:30;100790.91;;;59.12;12.47
19553;BME280;9420;50.876;7.012;2022-08-25T13:12:30;100787.38;;;60.46;11.83
19553;BME280;9420;50.876;7.012;2022-08-25T13:15:01;100772.25;;;58.80;12.36
19553;BME280;9420;50.876;7.012;2022-08-25T13:17:34;100771.44;;;59.45;12.22
19553;BME280;9420;50.876;7.012;2022-08-25T13:20:19;100767.41;;;59.46;11.81
19553;BME280;9420;50.876;7.012;2022-08-25T13:22:52;100765.84;;;57.17;12.09
19553;BME280;9420;50.876;7.012;2022-08-25T13:25:26;100775.97;;;58.09;12.31
19553;BME280;9420;50.876;7.012;2022-08-25T13:27:57;100763.66;;;58.92;12.05
19553;BME280;9420;50.876;7.012;2022-08-25T13:30:29;100778.09;;;60.29;11.15
19553;BME280;9420;50.876;7.012;2022-08-25T13:32:58;100766.25;;;60.47;11.05
19553;BME280;9420;50.876;7.012;2022-08-25T13:35:28;100760.00;;;59.77;11.58
19553;BME280;9420;50.876;7.012;2022-08-25T13:38:13;100760.25;;;59.72;11.86